Louisville, KY

6:47 AM EST on February 09, 2016 (GMT -0500)
Louisville International-Standiford | | Change Station
CLOSE
Current Station
Airport
Location: Louisville,
Elevation: 489 ft
Nearby Weather Stations
Active Advisory: Winter Weather Advisory Active Notice: Local Storm Report

Elev 489 ft 38.17 °N, 85.74 °W | Updated 51 minutes ago

Overcast
Overcast
22 °F
Feels Like 12 °F
N
8
Wind Variable Wind from WNW

Today
High -- | Low -- °F
--% Chance of Precip.
Yesterday
High -- | Low -- °F
Precip. -- in
Pressure 29.82 in
Visibility 5.0 miles
Clouds Few 1700 ft
Few 2400 ft
Overcast 4000 ft
Windchill 12 °F
Dew Point 17 °F
Humidity 82%
Rainfall 0.00 in
Snow Depth Not available.
7:40 AM 6:14 PM
New Moon, 1% visible
METAR KSDF 091056Z 29007KT 5SM -SN FEW017 FEW024 OVC040 M06/M08 A2981 RMK AO2 SNB09 SLP098 P0000 T10561083
Pressure 29.82 in
Visibility 5.0 miles
Clouds Few 1700 ft
Few 2400 ft
Overcast 4000 ft
Windchill 12 °F
Dew Point 17 °F
Humidity 82%
Rainfall 0.00 in
Snow Depth Not available.
7:40 AM 6:14 PM
New Moon, 1% visible
METAR KSDF 091056Z 29007KT 5SM -SN FEW017 FEW024 OVC040 M06/M08 A2981 RMK AO2 SNB09 SLP098 P0000 T10561083

10-Day Weather Forecast

Almanac

Astronomy

Feb. 09, 2016 Rise Set
Actual Time
Civil Twilight
Nautical Twilight
Astronomical Twilight
Moon
Length of Visible Light
Length of Day
Tomorrow will be .
, % of the Moon is Illuminated

Today's Extremes

State Highs State Lows

Community

WunderPhotos

Upload Photos

1,891,565 photos uploaded!

WunderBlog® & News

Nearby

Air Quality

  Air Quality AQ Index Pollutant
Not available.

Snow Depth

Station Depth Elevation

Earthquake Activity

City Distance Mag. Time & Date
Minimum magnitude displayed is 2.5.

Coastal Water Temperatures

Place Temperature

Stations

Nearby Weather Stations

Station Location Temp. Windchill Dew Point Humidity Wind Precip. Elev Updated Type
                   

Watches & Warnings

Winter Weather Advisory
Issued: 2:23 AM CST Feb. 9, 2016 – National Weather Service

... Winter Weather Advisory now in effect until 10 am EST /9 am
CST/ Wednesday...

* timing... intermittent snow showers... the greatest intensity
expected this afternoon and early evening.

* Main impact... periods of moderate to briefly heavy snow showers
will impact travel. Roads will remain or become slick and snow
covered... especially secondary and untreated surfaces. An
additional 1 inch of accumulation is expected.

* Other impacts... gusty winds may reduce visibility at times.
Lingering moisture from Monday has frozen... creating a layer
of ice underneath the freshly fallen snow.

Precautionary/preparedness actions...

Research shows that more traffic accidents occur with an inch or
less of snow... before drivers realize that traction is reduced.
Don't become a statistic... slow down and leave extra distance
between vehicles.



Zt